Time;durP1;ratioP1;P1;durP2;ratioP2;P2;SDS_P1;SDS_P2;PMS_P1;PMS_P2;Temp;Humidity;BMP_temperature;BMP_pressure;BME280_temperature;BME280_humidity;BME280_pressure;Samples;Min_cycle;Max_cycle;Signal;HPM_P1;HPM_P2
2022/10/20 00:01:50;;;;;;;5.97;1.48;;;;;;;;;;5064549;28;20130;-50
2022/10/20 00:04:21;;;;;;;4.63;1.73;;;;;;;;;;5056249;28;20085;-53
2022/10/20 00:06:50;;;;;;;2.92;1.45;;;;;;;;;;5060225;28;20049;-53
2022/10/20 00:09:19;;;;;;;4.05;1.70;;;;;;;;;;5060613;28;20048;-52
2022/10/20 00:11:49;;;;;;;4.50;1.60;;;;;;;;;;5085428;28;20129;-53
2022/10/20 00:14:17;;;;;;;2.53;1.52;;;;;;;;;;5095835;28;20052;-52
2022/10/20 00:16:49;;;;;;;4.32;1.50;;;;;;;;;;5096095;28;20126;-52
2022/10/20 00:19:19;;;;;;;6.00;1.83;;;;;;;;;;5066807;28;20061;-52
2022/10/20 00:21:49;;;;;;;3.72;1.45;;;;;;;;;;5096414;28;20056;-50
2022/10/20 00:24:20;;;;;;;4.75;1.63;;;;;;;;;;5084342;28;20053;-50
2022/10/20 00:26:50;;;;;;;4.65;1.73;;;;;;;;;;5080156;28;20090;-52
2022/10/20 00:32:14;;;;;;;3.60;1.40;;;;;;;;;;5077708;28;20064;-54
2022/10/20 00:34:42;;;;;;;4.22;1.73;;;;;;;;;;5067417;28;20052;-51
2022/10/20 00:37:09;;;;;;;2.85;1.27;;;;;;;;;;5072127;28;20050;-51
2022/10/20 00:39:48;;;;;;;3.63;1.25;;;;;;;;;;5063145;28;20052;-54
2022/10/20 00:42:24;;;;;;;4.18;1.30;;;;;;;;;;5068391;28;20049;-52
2022/10/20 00:44:54;;;;;;;3.72;1.48;;;;;;;;;;5073310;28;20050;-54
2022/10/20 00:47:33;;;;;;;2.25;1.13;;;;;;;;;;5066777;28;20132;-52
2022/10/20 00:50:05;;;;;;;2.88;1.20;;;;;;;;;;5063792;28;20060;-53
2022/10/20 00:52:33;;;;;;;3.15;1.45;;;;;;;;;;5060072;28;20133;-50
2022/10/20 00:55:03;;;;;;;2.78;1.20;;;;;;;;;;5071304;28;20062;-53
2022/10/20 00:57:31;;;;;;;4.07;1.42;;;;;;;;;;5059402;28;20056;-50
2022/10/20 01:00:02;;;;;;;3.40;1.13;;;;;;;;;;5059734;28;20045;-52
2022/10/20 01:02:31;;;;;;;3.20;1.52;;;;;;;;;;5055182;28;20465;-52
2022/10/20 01:04:58;;;;;;;4.50;1.20;;;;;;;;;;5054350;28;20053;-50
2022/10/20 01:07:26;;;;;;;2.65;1.00;;;;;;;;;;5055541;28;20045;-53
2022/10/20 01:09:56;;;;;;;2.85;1.08;;;;;;;;;;5056087;28;20059;-53
2022/10/20 01:12:30;;;;;;;2.30;1.10;;;;;;;;;;5063656;28;20076;-54
2022/10/20 01:15:03;;;;;;;2.83;0.90;;;;;;;;;;5058698;28;20071;-51
2022/10/20 01:17:46;;;;;;;4.75;0.90;;;;;;;;;;5063882;28;20051;-53
2022/10/20 01:20:33;;;;;;;3.63;0.80;;;;;;;;;;5052534;28;20048;-50
2022/10/20 01:23:23;;;;;;;3.30;0.95;;;;;;;;;;5057098;28;20470;-52
2022/10/20 01:26:07;;;;;;;2.28;0.80;;;;;;;;;;5075015;28;20061;-53
2022/10/20 01:28:55;;;;;;;2.17;0.90;;;;;;;;;;5074906;28;20048;-53
2022/10/20 01:31:26;;;;;;;1.23;0.80;;;;;;;;;;5074170;28;20087;-51
2022/10/20 01:33:57;;;;;;;3.58;0.88;;;;;;;;;;5074618;28;20048;-53
2022/10/20 01:36:29;;;;;;;3.40;1.20;;;;;;;;;;5072604;28;20461;-51
2022/10/20 01:39:04;;;;;;;3.50;0.93;;;;;;;;;;5081910;28;20135;-52
2022/10/20 01:41:33;;;;;;;2.55;0.90;;;;;;;;;;5080000;28;20544;-53
2022/10/20 01:44:04;;;;;;;3.53;0.90;;;;;;;;;;5074771;28;20056;-54
2022/10/20 01:46:35;;;;;;;3.50;0.93;;;;;;;;;;5079771;28;20109;-54
2022/10/20 01:49:05;;;;;;;2.45;0.80;;;;;;;;;;5073254;28;20059;-53
2022/10/20 01:51:34;;;;;;;3.75;1.05;;;;;;;;;;5069221;28;20071;-50
2022/10/20 01:54:03;;;;;;;2.00;0.80;;;;;;;;;;5069099;28;20044;-50
2022/10/20 01:56:35;;;;;;;2.80;0.77;;;;;;;;;;5061952;28;20048;-52
2022/10/20 01:59:16;;;;;;;3.33;1.17;;;;;;;;;;5059840;28;20133;-53
2022/10/20 02:02:01;;;;;;;1.83;0.93;;;;;;;;;;5054151;28;20055;-53
2022/10/20 02:04:36;;;;;;;4.03;0.97;;;;;;;;;;5053279;28;20102;-50
2022/10/20 02:07:08;;;;;;;1.83;0.70;;;;;;;;;;5066228;28;20433;-50
2022/10/20 02:09:39;;;;;;;1.67;0.80;;;;;;;;;;5068859;28;20063;-52
2022/10/20 02:12:10;;;;;;;1.95;0.93;;;;;;;;;;5062027;28;20052;-52
2022/10/20 02:14:44;;;;;;;3.42;0.80;;;;;;;;;;5083357;28;20055;-52
2022/10/20 02:17:13;;;;;;;3.03;0.80;;;;;;;;;;5076779;28;20052;-53
2022/10/20 02:19:44;;;;;;;1.95;0.60;;;;;;;;;;5075007;28;20048;-54
2022/10/20 02:22:13;;;;;;;2.47;0.90;;;;;;;;;;5074895;28;20060;-50
2022/10/20 02:24:45;;;;;;;2.22;0.70;;;;;;;;;;5075871;28;20048;-53
2022/10/20 02:27:15;;;;;;;1.55;0.77;;;;;;;;;;5079810;28;20055;-54
2022/10/20 02:29:58;;;;;;;1.70;0.70;;;;;;;;;;5078867;28;20046;-51
2022/10/20 02:32:25;;;;;;;1.40;0.60;;;;;;;;;;5093487;28;20056;-54
2022/10/20 02:34:53;;;;;;;4.03;0.73;;;;;;;;;;5077281;28;20645;-53
2022/10/20 02:37:23;;;;;;;2.03;0.90;;;;;;;;;;5082445;28;20063;-52
2022/10/20 02:39:53;;;;;;;2.90;0.80;;;;;;;;;;5076703;28;20052;-50
2022/10/20 02:42:22;;;;;;;1.67;0.88;;;;;;;;;;5083370;28;20151;-52
2022/10/20 02:45:05;;;;;;;1.83;0.75;;;;;;;;;;5087162;28;20044;-52
2022/10/20 02:47:35;;;;;;;3.35;0.93;;;;;;;;;;5071207;28;20382;-53
2022/10/20 02:50:04;;;;;;;1.98;0.85;;;;;;;;;;5075836;28;20080;-54
2022/10/20 02:52:34;;;;;;;3.95;0.70;;;;;;;;;;5069717;28;20088;-52
2022/10/20 02:55:03;;;;;;;3.70;0.90;;;;;;;;;;5074088;28;20052;-53
2022/10/20 02:57:34;;;;;;;3.10;1.05;;;;;;;;;;5073170;28;20072;-52
2022/10/20 03:00:04;;;;;;;2.05;0.80;;;;;;;;;;5068161;28;20056;-50
2022/10/20 03:02:34;;;;;;;4.90;1.42;;;;;;;;;;5065054;28;20053;-51
2022/10/20 03:05:02;;;;;;;2.50;1.00;;;;;;;;;;5068013;28;20056;-53
2022/10/20 03:07:29;;;;;;;2.42;1.00;;;;;;;;;;5063632;28;20040;-52
2022/10/20 03:09:57;;;;;;;2.05;0.90;;;;;;;;;;5081010;28;20052;-53
2022/10/20 03:12:27;;;;;;;2.05;0.80;;;;;;;;;;5064947;28;20389;-52
2022/10/20 03:14:54;;;;;;;2.47;0.90;;;;;;;;;;5072911;28;20134;-51
2022/10/20 03:17:28;;;;;;;2.20;0.85;;;;;;;;;;5063995;28;20041;-50
2022/10/20 03:19:59;;;;;;;1.87;0.60;;;;;;;;;;5059451;28;20135;-52
2022/10/20 03:22:25;;;;;;;1.85;0.80;;;;;;;;;;5063751;28;20462;-52
2022/10/20 03:24:55;;;;;;;1.77;0.65;;;;;;;;;;5067155;28;20052;-53
2022/10/20 03:27:25;;;;;;;1.55;0.77;;;;;;;;;;5072422;28;20052;-51
2022/10/20 03:29:53;;;;;;;2.63;0.70;;;;;;;;;;5081554;28;20084;-51
2022/10/20 03:32:22;;;;;;;4.03;0.82;;;;;;;;;;5077744;28;20066;-50
2022/10/20 03:35:05;;;;;;;1.35;0.60;;;;;;;;;;5072806;28;20485;-51
2022/10/20 03:37:35;;;;;;;1.77;0.63;;;;;;;;;;5072073;28;20052;-53
2022/10/20 03:40:04;;;;;;;2.15;0.55;;;;;;;;;;5080701;28;20131;-50
2022/10/20 03:42:39;;;;;;;3.17;0.68;;;;;;;;;;5092907;28;20443;-51
2022/10/20 03:45:10;;;;;;;;;;;;;;;;;;5067294;28;20048;-54
2022/10/20 03:47:40;;;;;;;1.70;0.40;;;;;;;;;;5052493;28;19921;-50
2022/10/20 03:50:09;;;;;;;1.92;0.50;;;;;;;;;;5078895;28;20529;-50
2022/10/20 03:52:36;;;;;;;2.45;0.70;;;;;;;;;;5056281;28;20060;-53
2022/10/20 03:55:04;;;;;;;1.95;0.80;;;;;;;;;;5061386;28;20045;-52
2022/10/20 03:57:33;;;;;;;1.70;0.70;;;;;;;;;;5052334;28;20045;-51
2022/10/20 04:02:44;;;;;;;1.90;0.60;;;;;;;;;;5052810;28;20053;-54
2022/10/20 04:05:22;;;;;;;1.15;0.50;;;;;;;;;;5052781;28;20053;-52
2022/10/20 04:07:49;;;;;;;1.05;0.40;;;;;;;;;;5089736;28;20044;-53
2022/10/20 04:10:19;;;;;;;3.47;0.60;;;;;;;;;;5070846;28;20114;-52
2022/10/20 04:12:46;;;;;;;1.75;0.70;;;;;;;;;;5080301;28;20123;-50
2022/10/20 04:15:14;;;;;;;1.77;0.52;;;;;;;;;;5082135;28;20052;-53
2022/10/20 04:17:42;;;;;;;2.85;0.63;;;;;;;;;;5088488;28;20419;-53
2022/10/20 04:20:11;;;;;;;3.13;0.70;;;;;;;;;;5070827;28;20056;-50
2022/10/20 04:22:47;;;;;;;1.67;0.50;;;;;;;;;;5092579;28;20047;-50
2022/10/20 04:25:16;;;;;;;1.90;0.60;;;;;;;;;;5052328;28;20053;-53
2022/10/20 04:27:46;;;;;;;1.30;0.60;;;;;;;;;;5081282;28;20123;-51
2022/10/20 04:30:15;;;;;;;5.93;1.02;;;;;;;;;;5061509;28;20056;-53
2022/10/20 04:32:45;;;;;;;2.47;0.55;;;;;;;;;;5080562;28;20071;-54
2022/10/20 04:35:16;;;;;;;1.70;0.88;;;;;;;;;;5071322;28;20096;-51
2022/10/20 04:37:57;;;;;;;1.20;0.60;;;;;;;;;;5072026;28;20128;-54
2022/10/20 04:40:28;;;;;;;4.55;0.80;;;;;;;;;;5064589;28;20068;-52
2022/10/20 04:42:55;;;;;;;1.85;0.60;;;;;;;;;;5055648;28;20477;-54
2022/10/20 04:45:22;;;;;;;4.00;0.80;;;;;;;;;;5066373;28;20053;-50
2022/10/20 04:47:52;;;;;;;2.90;0.73;;;;;;;;;;5055696;28;20045;-54
2022/10/20 04:50:20;;;;;;;2.58;0.70;;;;;;;;;;5068712;28;20485;-53
2022/10/20 04:52:51;;;;;;;5.15;0.70;;;;;;;;;;5058751;28;20060;-52
2022/10/20 04:55:21;;;;;;;5.45;1.40;;;;;;;;;;5062210;28;20067;-50
2022/10/20 04:57:48;;;;;;;4.10;1.23;;;;;;;;;;5068901;28;20735;-50
2022/10/20 05:00:16;;;;;;;4.95;1.17;;;;;;;;;;5059105;28;20468;-53
2022/10/20 05:02:45;;;;;;;3.42;1.13;;;;;;;;;;5054661;28;20636;-53
2022/10/20 05:05:14;;;;;;;5.43;1.25;;;;;;;;;;5065571;28;20056;-50
2022/10/20 05:07:44;;;;;;;6.40;1.60;;;;;;;;;;5072379;28;20040;-51
2022/10/20 05:10:14;;;;;;;5.00;1.50;;;;;;;;;;5056224;28;20470;-51
2022/10/20 05:12:44;;;;;;;5.35;1.38;;;;;;;;;;5058358;28;20049;-53
2022/10/20 05:15:12;;;;;;;10.13;1.35;;;;;;;;;;5072853;28;20056;-54
2022/10/20 05:17:41;;;;;;;7.28;1.35;;;;;;;;;;5062436;28;20055;-51
2022/10/20 05:20:08;;;;;;;5.18;1.88;;;;;;;;;;5056610;28;20052;-52
2022/10/20 05:22:36;;;;;;;4.57;1.20;;;;;;;;;;5056949;28;20386;-53
2022/10/20 05:25:07;;;;;;;5.38;0.95;;;;;;;;;;5069302;28;20041;-54
2022/10/20 05:27:39;;;;;;;4.78;0.95;;;;;;;;;;5072663;28;20044;-53
2022/10/20 05:30:06;;;;;;;4.13;0.88;;;;;;;;;;5074917;28;20048;-54
2022/10/20 05:32:36;;;;;;;1.90;0.82;;;;;;;;;;5089702;28;20083;-52
2022/10/20 05:35:06;;;;;;;4.55;0.80;;;;;;;;;;5074762;28;20052;-50
2022/10/20 05:37:34;;;;;;;6.18;1.10;;;;;;;;;;5074380;28;20052;-54
2022/10/20 05:40:05;;;;;;;10.20;1.85;;;;;;;;;;5069928;28;20048;-53
2022/10/20 05:42:34;;;;;;;10.88;1.42;;;;;;;;;;5075011;28;20068;-51
2022/10/20 05:45:21;;;;;;;2.25;1.00;;;;;;;;;;5073982;28;20084;-54
2022/10/20 05:47:50;;;;;;;4.63;1.00;;;;;;;;;;5089280;28;20063;-53
2022/10/20 05:50:20;;;;;;;6.85;1.30;;;;;;;;;;5073589;28;20052;-52
2022/10/20 05:52:50;;;;;;;9.43;1.30;;;;;;;;;;5058059;28;20080;-53
2022/10/20 05:55:18;;;;;;;4.03;1.13;;;;;;;;;;5061443;28;20540;-51
2022/10/20 05:57:51;;;;;;;4.32;1.00;;;;;;;;;;5056761;28;20045;-51
2022/10/20 06:00:28;;;;;;;3.22;0.80;;;;;;;;;;5064163;28;20079;-50
2022/10/20 06:03:00;;;;;;;4.88;0.90;;;;;;;;;;5055794;28;20084;-48
2022/10/20 06:05:27;;;;;;;3.08;0.90;;;;;;;;;;5062009;28;20150;-50
2022/10/20 06:07:58;;;;;;;2.88;1.13;;;;;;;;;;5065122;28;20044;-53
2022/10/20 06:10:26;;;;;;;3.53;0.80;;;;;;;;;;5080778;28;20041;-53
2022/10/20 06:12:57;;;;;;;4.05;0.73;;;;;;;;;;5080950;28;20053;-50
2022/10/20 06:15:26;;;;;;;2.10;0.60;;;;;;;;;;5068969;28;20045;-51
2022/10/20 06:17:54;;;;;;;10.85;1.65;;;;;;;;;;5067139;28;20345;-51
2022/10/20 06:20:23;;;;;;;3.53;0.85;;;;;;;;;;5065581;28;20060;-52
2022/10/20 06:22:49;;;;;;;7.50;0.90;;;;;;;;;;5063261;28;20492;-53
2022/10/20 06:25:26;;;;;;;8.25;0.70;;;;;;;;;;5072004;28;20052;-53
2022/10/20 06:27:56;;;;;;;7.65;1.25;;;;;;;;;;5072735;28;20141;-51
2022/10/20 06:30:26;;;;;;;4.43;0.90;;;;;;;;;;5071408;28;20481;-51
2022/10/20 06:33:03;;;;;;;4.35;1.15;;;;;;;;;;5085876;28;20114;-52
2022/10/20 06:35:34;;;;;;;5.30;0.80;;;;;;;;;;5063585;28;20048;-50
2022/10/20 06:38:04;;;;;;;7.38;1.00;;;;;;;;;;5072855;28;20053;-48
2022/10/20 06:40:33;;;;;;;4.70;0.70;;;;;;;;;;5064494;28;20057;-49
2022/10/20 06:43:02;;;;;;;3.08;0.80;;;;;;;;;;5061144;28;20049;-48
2022/10/20 06:45:31;;;;;;;1.88;0.90;;;;;;;;;;5072897;28;20041;-53
2022/10/20 06:48:06;;;;;;;2.40;0.73;;;;;;;;;;5070956;28;20084;-53
2022/10/20 06:50:35;;;;;;;2.05;0.70;;;;;;;;;;5067350;28;20044;-50
2022/10/20 06:53:03;;;;;;;1.90;0.70;;;;;;;;;;5074267;28;20049;-51
2022/10/20 06:55:33;;;;;;;4.57;1.10;;;;;;;;;;5068716;28;20078;-49
2022/10/20 06:58:00;;;;;;;3.15;0.80;;;;;;;;;;5060301;28;20057;-52
2022/10/20 07:00:27;;;;;;;6.88;1.23;;;;;;;;;;5062607;28;20059;-50
2022/10/20 07:02:56;;;;;;;9.60;1.05;;;;;;;;;;5069038;28;20067;-53
2022/10/20 07:05:31;;;;;;;10.07;1.00;;;;;;;;;;5068148;28;20409;-49
2022/10/20 07:07:58;;;;;;;2.58;0.60;;;;;;;;;;5086146;28;20048;-49
2022/10/20 07:10:33;;;;;;;2.55;0.73;;;;;;;;;;5064157;28;20051;-49
2022/10/20 07:13:03;;;;;;;2.83;0.57;;;;;;;;;;5069070;28;20049;-49
2022/10/20 07:15:30;;;;;;;3.70;0.70;;;;;;;;;;5075092;28;20049;-50
2022/10/20 07:17:59;;;;;;;2.15;0.65;;;;;;;;;;5081820;28;20048;-49
2022/10/20 07:20:37;;;;;;;3.47;0.57;;;;;;;;;;5088746;28;20139;-49
2022/10/20 07:23:04;;;;;;;5.43;1.35;;;;;;;;;;5091775;28;20048;-50
2022/10/20 07:25:34;;;;;;;2.33;0.50;;;;;;;;;;5086880;28;20099;-49
2022/10/20 07:28:04;;;;;;;1.67;0.55;;;;;;;;;;5075430;28;20097;-50
2022/10/20 07:30:35;;;;;;;2.33;0.50;;;;;;;;;;5076903;28;20052;-50
2022/10/20 07:33:02;;;;;;;2.97;0.75;;;;;;;;;;5086107;28;20779;-50
2022/10/20 07:35:34;;;;;;;3.80;0.80;;;;;;;;;;5062415;28;20050;-53
2022/10/20 07:38:03;;;;;;;6.25;0.77;;;;;;;;;;5067972;28;20048;-51
2022/10/20 07:40:37;;;;;;;3.55;0.60;;;;;;;;;;5062131;28;20053;-48
2022/10/20 07:43:13;;;;;;;4.10;0.60;;;;;;;;;;5059816;28;20045;-48
2022/10/20 07:45:40;;;;;;;4.10;0.60;;;;;;;;;;5071509;28;20477;-53
2022/10/20 07:48:17;;;;;;;2.25;0.75;;;;;;;;;;5072511;28;20067;-54
2022/10/20 07:50:52;;;;;;;5.10;0.90;;;;;;;;;;5067536;28;20057;-53
2022/10/20 07:53:22;;;;;;;4.82;0.70;;;;;;;;;;5071813;28;20060;-49
2022/10/20 07:55:52;;;;;;;5.20;1.17;;;;;;;;;;5074448;28;20508;-48
2022/10/20 07:58:22;;;;;;;2.35;1.20;;;;;;;;;;5072404;28;20080;-51
2022/10/20 08:00:49;;;;;;;2.17;0.50;;;;;;;;;;5072325;28;20057;-50
2022/10/20 08:03:19;;;;;;;0.90;0.40;;;;;;;;;;5073306;28;20058;-48
2022/10/20 08:05:48;;;;;;;2.13;0.50;;;;;;;;;;5069841;28;20044;-48
2022/10/20 08:08:18;;;;;;;3.10;0.40;;;;;;;;;;5068535;28;20764;-48
2022/10/20 08:10:48;;;;;;;5.90;0.65;;;;;;;;;;5066678;28;20044;-48
2022/10/20 08:13:24;;;;;;;2.05;0.40;;;;;;;;;;5065793;28;20048;-50
2022/10/20 08:15:54;;;;;;;1.70;0.50;;;;;;;;;;5072479;28;20048;-51
2022/10/20 08:18:31;;;;;;;1.80;0.60;;;;;;;;;;5069067;28;20052;-49
2022/10/20 08:21:12;;;;;;;1.73;0.30;;;;;;;;;;5067020;28;20076;-49
2022/10/20 08:23:41;;;;;;;3.55;0.63;;;;;;;;;;5074676;28;20048;-48
2022/10/20 08:26:08;;;;;;;1.35;0.30;;;;;;;;;;5074910;28;20053;-48
2022/10/20 08:28:38;;;;;;;2.63;0.60;;;;;;;;;;5074516;28;20048;-49
2022/10/20 08:31:07;;;;;;;1.48;0.20;;;;;;;;;;5069513;28;20048;-49
2022/10/20 08:33:38;;;;;;;2.75;0.30;;;;;;;;;;5085399;28;20127;-49
2022/10/20 08:36:14;;;;;;;2.13;0.40;;;;;;;;;;5074817;28;20055;-49
2022/10/20 08:38:45;;;;;;;1.13;0.38;;;;;;;;;;5072623;28;20091;-47
2022/10/20 08:41:16;;;;;;;1.88;0.65;;;;;;;;;;5073973;28;20102;-48
2022/10/20 08:43:44;;;;;;;1.25;0.30;;;;;;;;;;5074467;28;20135;-52
2022/10/20 08:46:21;;;;;;;1.35;0.30;;;;;;;;;;5072973;28;20055;-49
2022/10/20 08:48:50;;;;;;;1.77;0.40;;;;;;;;;;5076213;28;20133;-50
2022/10/20 08:51:20;;;;;;;2.13;0.57;;;;;;;;;;5079453;28;20048;-50
2022/10/20 08:53:51;;;;;;;3.67;0.43;;;;;;;;;;5075700;28;20143;-48
2022/10/20 08:56:20;;;;;;;2.60;0.55;;;;;;;;;;5078594;28;20048;-49
2022/10/20 08:58:48;;;;;;;5.53;0.50;;;;;;;;;;5068772;28;20037;-49
2022/10/20 09:01:21;;;;;;;3.08;0.45;;;;;;;;;;5066193;28;20168;-53
2022/10/20 09:03:58;;;;;;;1.05;0.30;;;;;;;;;;5067371;28;20064;-52
2022/10/20 09:06:28;;;;;;;4.45;0.50;;;;;;;;;;5074428;28;20131;-49
2022/10/20 09:09:05;;;;;;;1.27;0.20;;;;;;;;;;5063501;28;20419;-48
2022/10/20 09:11:47;;;;;;;1.23;0.40;;;;;;;;;;5064085;28;20048;-49
2022/10/20 09:14:19;;;;;;;3.35;0.55;;;;;;;;;;5074591;28;20048;-49
2022/10/20 09:16:50;;;;;;;0.57;0.20;;;;;;;;;;5072856;28;20055;-49
2022/10/20 09:19:18;;;;;;;0.88;0.30;;;;;;;;;;5075492;28;20147;-50
2022/10/20 09:21:53;;;;;;;0.70;0.20;;;;;;;;;;5075345;28;20052;-49
2022/10/20 09:24:29;;;;;;;2.53;0.30;;;;;;;;;;5077899;28;20149;-51
2022/10/20 09:27:05;;;;;;;3.85;0.52;;;;;;;;;;5066078;28;20055;-52
2022/10/20 09:29:56;;;;;;;0.73;0.30;;;;;;;;;;5070039;28;20044;-51
2022/10/20 09:32:35;;;;;;;1.20;0.30;;;;;;;;;;5070110;28;20048;-51
2022/10/20 09:35:20;;;;;;;0.47;0.20;;;;;;;;;;5079641;28;20105;-50
2022/10/20 09:37:53;;;;;;;0.73;0.22;;;;;;;;;;5073362;28;20052;-53
2022/10/20 09:40:21;;;;;;;1.52;0.43;;;;;;;;;;5068056;28;20051;-51
2022/10/20 09:42:50;;;;;;;2.65;0.40;;;;;;;;;;5072093;28;20053;-49
2022/10/20 09:45:27;;;;;;;2.75;0.40;;;;;;;;;;5072016;28;20135;-49
2022/10/20 09:47:58;;;;;;;2.05;0.30;;;;;;;;;;5085353;28;20476;-49
2022/10/20 09:50:34;;;;;;;3.20;0.40;;;;;;;;;;5072600;28;20048;-53
2022/10/20 09:53:18;;;;;;;4.40;0.60;;;;;;;;;;5062479;28;20131;-52
2022/10/20 09:55:50;;;;;;;3.97;0.52;;;;;;;;;;5067095;28;20151;-49
2022/10/20 09:58:20;;;;;;;2.22;0.32;;;;;;;;;;5065437;28;20053;-50
2022/10/20 10:00:55;;;;;;;2.67;0.57;;;;;;;;;;5066962;28;20461;-49
2022/10/20 10:03:23;;;;;;;0.55;0.20;;;;;;;;;;5071414;28;20051;-50
2022/10/20 10:06:01;;;;;;;1.20;0.40;;;;;;;;;;5070409;28;20053;-51
2022/10/20 10:08:47;;;;;;;1.63;0.40;;;;;;;;;;5066948;28;20114;-51
2022/10/20 10:11:14;;;;;;;0.40;0.20;;;;;;;;;;5064886;28;20056;-50
2022/10/20 10:13:45;;;;;;;1.05;0.47;;;;;;;;;;5068629;28;20305;-49
2022/10/20 10:16:15;;;;;;;1.10;0.30;;;;;;;;;;5073797;28;20110;-49
2022/10/20 10:18:57;;;;;;;0.50;0.30;;;;;;;;;;5070084;28;20056;-47
2022/10/20 10:21:38;;;;;;;2.15;0.30;;;;;;;;;;5079795;28;20062;-48
2022/10/20 10:24:27;;;;;;;2.47;0.40;;;;;;;;;;5084842;28;20059;-50
2022/10/20 10:26:56;;;;;;;4.90;0.52;;;;;;;;;;5060281;28;20113;-51
2022/10/20 10:29:32;;;;;;;1.33;0.30;;;;;;;;;;5073093;28;20036;-51
2022/10/20 10:32:00;;;;;;;0.80;0.40;;;;;;;;;;5072225;28;20067;-51
2022/10/20 10:34:45;;;;;;;1.23;0.40;;;;;;;;;;5065186;28;20059;-50
2022/10/20 10:37:14;;;;;;;0.63;0.43;;;;;;;;;;5066719;28;20106;-53
2022/10/20 10:39:44;;;;;;;2.83;0.30;;;;;;;;;;5059866;28;20444;-51
2022/10/20 10:42:33;;;;;;;1.40;0.32;;;;;;;;;;5054834;28;20634;-50
2022/10/20 10:45:05;;;;;;;1.05;0.30;;;;;;;;;;5062039;28;20446;-51
2022/10/20 10:47:40;;;;;;;1.50;0.30;;;;;;;;;;5062925;28;20357;-53
2022/10/20 10:50:22;;;;;;;1.08;0.40;;;;;;;;;;5068369;28;20052;-53
2022/10/20 10:52:55;;;;;;;0.75;0.30;;;;;;;;;;5070224;28;20468;-52
2022/10/20 10:55:47;;;;;;;0.57;0.20;;;;;;;;;;5069779;28;20064;-53
2022/10/20 10:58:22;;;;;;;2.08;0.70;;;;;;;;;;5068158;28;20093;-53
2022/10/20 11:01:00;;;;;;;0.70;0.20;;;;;;;;;;5072292;28;20049;-53
2022/10/20 11:03:38;;;;;;;1.30;0.30;;;;;;;;;;5072141;28;20045;-52
2022/10/20 11:06:14;;;;;;;2.75;0.40;;;;;;;;;;5071186;28;20102;-52
2022/10/20 11:08:52;;;;;;;2.05;0.50;;;;;;;;;;5071724;28;20109;-52
2022/10/20 11:11:33;;;;;;;2.75;0.55;;;;;;;;;;5070634;28;20045;-53
2022/10/20 11:14:07;;;;;;;0.70;0.30;;;;;;;;;;5071961;28;20048;-52
2022/10/20 11:16:42;;;;;;;1.63;0.45;;;;;;;;;;5069064;28;20058;-51
2022/10/20 11:19:28;;;;;;;0.90;0.30;;;;;;;;;;5071974;28;20041;-51
2022/10/20 11:22:03;;;;;;;1.23;0.38;;;;;;;;;;5059761;28;20053;-50
2022/10/20 11:24:35;;;;;;;;;;;;;;;;;;5063914;28;20054;-50
2022/10/20 11:27:09;;;;;;;0.32;0.30;;;;;;;;;;5062335;28;19920;-54
2022/10/20 11:29:39;;;;;;;1.07;0.33;;;;;;;;;;5068443;28;20044;-54
2022/10/20 11:32:10;;;;;;;0.52;0.20;;;;;;;;;;5072271;28;20060;-52
2022/10/20 11:34:43;;;;;;;1.50;0.30;;;;;;;;;;5073540;28;20055;-55
2022/10/20 11:37:20;;;;;;;0.98;0.40;;;;;;;;;;5072452;28;20102;-54
2022/10/20 11:39:51;;;;;;;0.63;0.30;;;;;;;;;;5069823;28;20127;-52
2022/10/20 11:42:32;;;;;;;1.88;0.52;;;;;;;;;;5068795;28;20059;-50
2022/10/20 11:45:01;;;;;;;0.75;0.35;;;;;;;;;;5063977;28;20048;-49
2022/10/20 11:47:36;;;;;;;2.17;0.52;;;;;;;;;;5065281;28;20066;-50
2022/10/20 11:50:04;;;;;;;1.75;0.38;;;;;;;;;;5072165;28;20445;-50
2022/10/20 11:52:45;;;;;;;2.58;0.40;;;;;;;;;;5072747;28;20048;-50
2022/10/20 11:55:32;;;;;;;2.92;0.50;;;;;;;;;;5070807;28;20457;-50
2022/10/20 11:58:09;;;;;;;1.45;0.38;;;;;;;;;;5062272;28;20167;-48
2022/10/20 12:00:54;;;;;;;0.55;0.32;;;;;;;;;;5066576;28;20106;-50
2022/10/20 12:03:44;;;;;;;3.50;0.87;;;;;;;;;;5073560;28;20044;-51
2022/10/20 12:06:20;;;;;;;2.30;0.38;;;;;;;;;;5067315;28;20040;-49
2022/10/20 12:09:06;;;;;;;1.13;0.35;;;;;;;;;;5078141;28;20062;-49
2022/10/20 12:11:42;;;;;;;0.95;0.50;;;;;;;;;;5049734;28;20529;-51
2022/10/20 12:14:25;;;;;;;1.00;0.38;;;;;;;;;;5070954;28;20049;-51
2022/10/20 12:17:12;;;;;;;9.95;0.80;;;;;;;;;;5069914;28;20496;-50
2022/10/20 12:19:51;;;;;;;0.88;0.40;;;;;;;;;;5071766;28;20055;-54
2022/10/20 12:22:48;;;;;;;2.33;0.40;;;;;;;;;;5075173;28;20044;-53
2022/10/20 12:25:38;;;;;;;1.65;0.38;;;;;;;;;;5066333;28;20084;-50
2022/10/20 12:28:34;;;;;;;2.13;0.65;;;;;;;;;;5076309;28;20091;-50
2022/10/20 12:31:05;;;;;;;0.98;0.47;;;;;;;;;;5072984;28;20076;-50
2022/10/20 12:33:42;;;;;;;1.15;0.40;;;;;;;;;;5075295;28;20127;-50
2022/10/20 12:36:32;;;;;;;2.00;0.43;;;;;;;;;;5077327;28;20094;-51
2022/10/20 12:39:20;;;;;;;2.15;0.63;;;;;;;;;;5079959;28;20048;-53
2022/10/20 12:42:03;;;;;;;1.13;0.35;;;;;;;;;;5071741;28;20084;-50
2022/10/20 12:44:32;;;;;;;0.95;0.35;;;;;;;;;;5073760;28;20466;-49
2022/10/20 12:47:07;;;;;;;3.58;0.90;;;;;;;;;;5070926;28;20048;-50
2022/10/20 12:49:37;;;;;;;1.92;0.70;;;;;;;;;;5068696;28;20048;-52
2022/10/20 12:52:09;;;;;;;2.08;0.50;;;;;;;;;;5076427;28;20087;-50
2022/10/20 12:54:39;;;;;;;0.55;0.32;;;;;;;;;;5071291;28;20048;-53
2022/10/20 12:57:28;;;;;;;3.85;0.63;;;;;;;;;;5081478;28;20048;-51
2022/10/20 12:59:57;;;;;;;2.55;0.45;;;;;;;;;;5074552;28;20044;-49
2022/10/20 13:02:45;;;;;;;2.05;0.60;;;;;;;;;;5065166;28;20393;-48
2022/10/20 13:05:34;;;;;;;1.60;0.60;;;;;;;;;;5070871;28;20078;-49
2022/10/20 13:08:03;;;;;;;2.83;0.68;;;;;;;;;;5071402;28;20731;-49
2022/10/20 13:10:35;;;;;;;3.15;0.60;;;;;;;;;;5064993;28;20596;-49
2022/10/20 13:13:24;;;;;;;2.97;0.50;;;;;;;;;;5071033;28;20045;-51
2022/10/20 13:15:55;;;;;;;2.22;0.50;;;;;;;;;;5068198;28;20044;-50
2022/10/20 13:18:26;;;;;;;4.00;0.60;;;;;;;;;;5069698;28;20055;-49
2022/10/20 13:20:56;;;;;;;1.45;0.65;;;;;;;;;;5073336;28;20124;-51
2022/10/20 13:23:25;;;;;;;2.03;0.60;;;;;;;;;;5072693;28;20048;-49
2022/10/20 13:25:53;;;;;;;0.65;0.40;;;;;;;;;;5073769;28;20052;-48
2022/10/20 13:28:21;;;;;;;1.65;0.82;;;;;;;;;;5074181;28;20570;-53
2022/10/20 13:31:01;;;;;;;2.30;0.60;;;;;;;;;;5074220;28;20334;-49
2022/10/20 13:33:32;;;;;;;1.63;0.50;;;;;;;;;;5080104;28;20104;-49
2022/10/20 13:36:06;;;;;;;1.17;0.40;;;;;;;;;;5091039;28;20108;-51
2022/10/20 13:38:40;;;;;;;1.48;0.40;;;;;;;;;;5079347;28;20036;-53
2022/10/20 13:41:11;;;;;;;0.90;0.32;;;;;;;;;;5077005;28;20583;-50
2022/10/20 13:43:45;;;;;;;1.35;0.60;;;;;;;;;;5077103;28;20438;-53
2022/10/20 13:46:24;;;;;;;3.97;0.90;;;;;;;;;;5074364;28;20183;-51
2022/10/20 13:49:00;;;;;;;1.08;0.40;;;;;;;;;;5071737;28;20041;-50
2022/10/20 13:51:32;;;;;;;2.85;0.60;;;;;;;;;;5073788;28;20054;-52
2022/10/20 13:54:00;;;;;;;2.38;0.80;;;;;;;;;;5071997;28;20076;-51
2022/10/20 13:56:30;;;;;;;2.28;0.75;;;;;;;;;;5061462;28;20080;-52
2022/10/20 13:59:01;;;;;;;4.05;0.68;;;;;;;;;;5074413;28;20102;-48
2022/10/20 14:01:32;;;;;;;2.35;0.50;;;;;;;;;;5069837;28;20044;-51
2022/10/20 14:04:01;;;;;;;3.30;0.77;;;;;;;;;;5070394;28;20048;-47
2022/10/20 14:06:44;;;;;;;4.93;0.60;;;;;;;;;;5081181;28;20060;-48
2022/10/20 14:09:14;;;;;;;3.78;0.95;;;;;;;;;;5080881;28;20052;-54
2022/10/20 14:11:41;;;;;;;1.85;0.55;;;;;;;;;;5075665;28;20051;-52
2022/10/20 14:14:18;;;;;;;2.38;0.68;;;;;;;;;;5068302;28;20347;-49
2022/10/20 14:16:51;;;;;;;1.13;0.50;;;;;;;;;;5071494;28;20044;-49
2022/10/20 14:19:20;;;;;;;2.35;0.60;;;;;;;;;;5073911;28;20049;-50
2022/10/20 14:21:57;;;;;;;2.72;0.73;;;;;;;;;;5078269;28;20070;-50
2022/10/20 14:24:27;;;;;;;1.55;0.80;;;;;;;;;;5078874;28;20055;-49
2022/10/20 14:26:55;;;;;;;3.65;0.80;;;;;;;;;;5071008;28;20466;-50
2022/10/20 14:29:22;;;;;;;4.53;0.95;;;;;;;;;;5086198;28;20060;-50
2022/10/20 14:31:59;;;;;;;3.47;1.02;;;;;;;;;;5076028;28;20052;-50
2022/10/20 14:34:37;;;;;;;2.53;0.90;;;;;;;;;;5082479;28;20071;-50
2022/10/20 14:37:08;;;;;;;2.88;0.85;;;;;;;;;;5075751;28;20112;-52
2022/10/20 14:39:46;;;;;;;4.00;0.90;;;;;;;;;;5077589;28;20058;-51
2022/10/20 14:42:27;;;;;;;3.15;1.10;;;;;;;;;;5067043;28;20127;-50
2022/10/20 14:44:59;;;;;;;1.38;0.65;;;;;;;;;;5071014;28;20480;-54
2022/10/20 14:47:31;;;;;;;2.83;0.63;;;;;;;;;;5065758;28;20041;-52
2022/10/20 14:50:01;;;;;;;2.15;0.90;;;;;;;;;;5073253;28;20051;-51
2022/10/20 14:52:29;;;;;;;1.67;0.40;;;;;;;;;;5069204;28;20521;-54
2022/10/20 14:54:57;;;;;;;1.08;0.57;;;;;;;;;;5062529;28;20063;-53
2022/10/20 14:57:39;;;;;;;1.52;0.50;;;;;;;;;;5072026;28;20133;-54
2022/10/20 15:00:29;;;;;;;1.50;0.43;;;;;;;;;;5071848;28;20056;-51
2022/10/20 15:03:05;;;;;;;2.13;0.47;;;;;;;;;;5055879;28;20521;-52
2022/10/20 15:05:36;;;;;;;1.08;0.40;;;;;;;;;;5072509;28;20052;-54
2022/10/20 15:08:15;;;;;;;1.48;0.50;;;;;;;;;;5058446;28;20056;-51
2022/10/20 15:10:45;;;;;;;2.53;0.68;;;;;;;;;;5065437;28;20048;-51
2022/10/20 15:13:23;;;;;;;1.15;0.50;;;;;;;;;;5057856;28;20160;-52
2022/10/20 15:15:50;;;;;;;2.40;0.55;;;;;;;;;;5066522;28;20368;-50
2022/10/20 15:18:31;;;;;;;1.27;0.38;;;;;;;;;;5065391;28;20055;-50
2022/10/20 15:21:01;;;;;;;2.03;0.80;;;;;;;;;;5075028;28;20037;-50
2022/10/20 15:23:31;;;;;;;1.95;0.80;;;;;;;;;;5061780;28;20456;-50